sensor_id;sensor_type;location;lat;lon;timestamp;pressure;altitude;pressure_sealevel;temperature;humidity
20620;BME280;10469;42.720;23.252;2023-03-15T00:01:38;93917.69;;;5.76;100.00
20620;BME280;10469;42.720;23.252;2023-03-15T00:04:04;93905.88;;;5.84;99.33
20620;BME280;10469;42.720;23.252;2023-03-15T00:06:31;93879.97;;;5.79;100.00
20620;BME280;10469;42.720;23.252;2023-03-15T00:08:58;93902.50;;;5.65;100.00
20620;BME280;10469;42.720;23.252;2023-03-15T00:11:26;93912.06;;;5.43;100.00
20620;BME280;10469;42.720;23.252;2023-03-15T00:13:52;93913.81;;;5.37;100.00
20620;BME280;10469;42.720;23.252;2023-03-15T00:16:18;93901.75;;;5.35;100.00
20620;BME280;10469;42.720;23.252;2023-03-15T00:18:44;93910.69;;;5.52;100.00
20620;BME280;10469;42.720;23.252;2023-03-15T00:21:11;93885.41;;;5.49;100.00
20620;BME280;10469;42.720;23.252;2023-03-15T00:23:36;93888.72;;;5.57;100.00
20620;BME280;10469;42.720;23.252;2023-03-15T00:26:02;93898.34;;;5.46;100.00
20620;BME280;10469;42.720;23.252;2023-03-15T00:28:27;93902.88;;;5.15;100.00
20620;BME280;10469;42.720;23.252;2023-03-15T00:31:22;93886.03;;;5.21;100.00
20620;BME280;10469;42.720;23.252;2023-03-15T00:33:48;93883.31;;;5.40;100.00
20620;BME280;10469;42.720;23.252;2023-03-15T00:36:18;93891.59;;;5.43;100.00
20620;BME280;10469;42.720;23.252;2023-03-15T00:38:43;93882.03;;;5.54;100.00
20620;BME280;10469;42.720;23.252;2023-03-15T00:41:11;93879.06;;;5.62;100.00
20620;BME280;10469;42.720;23.252;2023-03-15T00:43:37;93887.72;;;5.58;100.00
20620;BME280;10469;42.720;23.252;2023-03-15T00:46:03;93879.97;;;5.44;100.00
20620;BME280;10469;42.720;23.252;2023-03-15T00:48:29;93879.13;;;5.44;100.00
20620;BME280;10469;42.720;23.252;2023-03-15T00:53:31;93868.50;;;5.44;100.00
20620;BME280;10469;42.720;23.252;2023-03-15T00:55:56;93854.13;;;5.21;100.00
20620;BME280;10469;42.720;23.252;2023-03-15T00:58:22;93849.78;;;5.27;100.00
20620;BME280;10469;42.720;23.252;2023-03-15T01:00:48;93857.75;;;5.27;100.00
20620;BME280;10469;42.720;23.252;2023-03-15T01:03:13;93865.72;;;5.39;100.00
20620;BME280;10469;42.720;23.252;2023-03-15T01:05:39;93838.88;;;5.17;100.00
20620;BME280;10469;42.720;23.252;2023-03-15T01:08:05;93859.06;;;5.06;100.00
20620;BME280;10469;42.720;23.252;2023-03-15T01:10:33;93850.06;;;5.07;100.00
20620;BME280;10469;42.720;23.252;2023-03-15T01:12:59;93857.88;;;4.90;100.00
20620;BME280;10469;42.720;23.252;2023-03-15T01:15:24;93853.75;;;5.06;100.00
20620;BME280;10469;42.720;23.252;2023-03-15T01:17:50;93839.56;;;5.12;100.00
20620;BME280;10469;42.720;23.252;2023-03-15T01:20:16;93844.31;;;5.10;100.00
20620;BME280;10469;42.720;23.252;2023-03-15T01:22:41;93845.34;;;5.21;100.00
20620;BME280;10469;42.720;23.252;2023-03-15T01:25:07;93825.72;;;5.34;100.00
20620;BME280;10469;42.720;23.252;2023-03-15T01:27:33;93836.44;;;5.15;100.00
20620;BME280;10469;42.720;23.252;2023-03-15T01:29:59;93830.75;;;4.88;100.00
20620;BME280;10469;42.720;23.252;2023-03-15T01:32:25;93822.69;;;5.07;100.00
20620;BME280;10469;42.720;23.252;2023-03-15T01:34:51;93830.19;;;4.98;100.00
20620;BME280;10469;42.720;23.252;2023-03-15T01:37:16;93827.59;;;4.80;100.00
20620;BME280;10469;42.720;23.252;2023-03-15T01:39:42;93821.81;;;4.83;100.00
20620;BME280;10469;42.720;23.252;2023-03-15T01:42:08;93808.56;;;4.94;100.00
20620;BME280;10469;42.720;23.252;2023-03-15T01:47:13;93824.66;;;5.11;100.00
20620;BME280;10469;42.720;23.252;2023-03-15T01:49:38;93825.22;;;5.13;100.00
20620;BME280;10469;42.720;23.252;2023-03-15T01:52:07;93808.13;;;4.97;100.00
20620;BME280;10469;42.720;23.252;2023-03-15T01:54:59;93805.88;;;4.83;100.00
20620;BME280;10469;42.720;23.252;2023-03-15T01:57:31;93802.44;;;4.94;100.00
20620;BME280;10469;42.720;23.252;2023-03-15T02:00:12;93790.84;;;4.76;100.00
20620;BME280;10469;42.720;23.252;2023-03-15T02:02:40;93791.78;;;4.82;100.00
20620;BME280;10469;42.720;23.252;2023-03-15T02:05:14;93790.44;;;5.03;100.00
20620;BME280;10469;42.720;23.252;2023-03-15T02:07:43;93788.34;;;5.05;100.00
20620;BME280;10469;42.720;23.252;2023-03-15T02:10:17;93778.88;;;4.86;100.00
20620;BME280;10469;42.720;23.252;2023-03-15T02:12:47;93788.19;;;4.76;100.00
20620;BME280;10469;42.720;23.252;2023-03-15T02:15:16;93775.88;;;4.94;100.00
20620;BME280;10469;42.720;23.252;2023-03-15T02:17:44;93781.88;;;4.89;100.00
20620;BME280;10469;42.720;23.252;2023-03-15T02:23:14;93772.84;;;4.78;100.00
20620;BME280;10469;42.720;23.252;2023-03-15T02:26:15;93775.97;;;4.87;100.00
20620;BME280;10469;42.720;23.252;2023-03-15T02:28:42;93777.78;;;4.63;100.00
20620;BME280;10469;42.720;23.252;2023-03-15T02:31:08;93758.06;;;4.83;100.00
20620;BME280;10469;42.720;23.252;2023-03-15T02:33:42;93777.13;;;4.80;100.00
20620;BME280;10469;42.720;23.252;2023-03-15T02:36:09;93775.03;;;4.82;100.00
20620;BME280;10469;42.720;23.252;2023-03-15T02:38:36;93762.44;;;4.77;100.00
20620;BME280;10469;42.720;23.252;2023-03-15T02:41:02;93771.13;;;4.84;100.00
20620;BME280;10469;42.720;23.252;2023-03-15T02:43:30;93762.47;;;4.89;100.00
20620;BME280;10469;42.720;23.252;2023-03-15T02:45:58;93749.38;;;4.64;100.00
20620;BME280;10469;42.720;23.252;2023-03-15T02:48:25;93759.50;;;4.97;100.00
20620;BME280;10469;42.720;23.252;2023-03-15T02:50:50;93730.47;;;4.72;100.00
20620;BME280;10469;42.720;23.252;2023-03-15T02:53:16;93755.28;;;4.77;100.00
20620;BME280;10469;42.720;23.252;2023-03-15T02:55:41;93764.44;;;4.93;100.00
20620;BME280;10469;42.720;23.252;2023-03-15T02:58:07;93732.66;;;4.87;100.00
20620;BME280;10469;42.720;23.252;2023-03-15T03:00:32;93753.09;;;4.86;100.00
20620;BME280;10469;42.720;23.252;2023-03-15T03:02:59;93736.47;;;4.79;100.00
20620;BME280;10469;42.720;23.252;2023-03-15T03:05:25;93737.63;;;4.83;100.00
20620;BME280;10469;42.720;23.252;2023-03-15T03:07:50;93726.69;;;4.80;100.00
20620;BME280;10469;42.720;23.252;2023-03-15T03:10:18;93721.63;;;4.48;100.00
20620;BME280;10469;42.720;23.252;2023-03-15T03:12:43;93736.66;;;4.66;100.00
20620;BME280;10469;42.720;23.252;2023-03-15T03:15:10;93740.25;;;4.60;100.00
20620;BME280;10469;42.720;23.252;2023-03-15T03:17:35;93733.69;;;4.62;100.00
20620;BME280;10469;42.720;23.252;2023-03-15T03:20:08;93738.97;;;4.50;100.00
20620;BME280;10469;42.720;23.252;2023-03-15T03:22:35;93744.28;;;4.20;100.00
20620;BME280;10469;42.720;23.252;2023-03-15T03:25:01;93736.38;;;4.32;100.00
20620;BME280;10469;42.720;23.252;2023-03-15T03:27:28;93708.47;;;4.41;100.00
20620;BME280;10469;42.720;23.252;2023-03-15T03:29:53;93731.72;;;4.69;100.00
20620;BME280;10469;42.720;23.252;2023-03-15T03:32:19;93721.00;;;4.88;100.00
20620;BME280;10469;42.720;23.252;2023-03-15T03:34:44;93714.88;;;4.75;100.00
20620;BME280;10469;42.720;23.252;2023-03-15T03:37:16;93717.53;;;4.87;100.00
20620;BME280;10469;42.720;23.252;2023-03-15T03:39:42;93711.53;;;4.80;100.00
20620;BME280;10469;42.720;23.252;2023-03-15T03:42:07;93730.00;;;4.87;100.00
20620;BME280;10469;42.720;23.252;2023-03-15T03:44:33;93713.19;;;4.93;100.00
20620;BME280;10469;42.720;23.252;2023-03-15T03:46:58;93711.78;;;4.90;100.00
20620;BME280;10469;42.720;23.252;2023-03-15T03:49:24;93712.00;;;5.00;100.00
20620;BME280;10469;42.720;23.252;2023-03-15T03:51:49;93697.09;;;4.64;100.00
20620;BME280;10469;42.720;23.252;2023-03-15T03:54:15;93685.66;;;4.64;100.00
20620;BME280;10469;42.720;23.252;2023-03-15T03:56:40;93707.97;;;4.98;100.00
20620;BME280;10469;42.720;23.252;2023-03-15T03:59:06;93693.41;;;5.00;100.00
20620;BME280;10469;42.720;23.252;2023-03-15T04:01:31;93695.75;;;4.97;100.00
20620;BME280;10469;42.720;23.252;2023-03-15T04:03:58;93693.78;;;4.92;100.00
20620;BME280;10469;42.720;23.252;2023-03-15T04:06:23;93658.66;;;4.67;100.00
20620;BME280;10469;42.720;23.252;2023-03-15T04:08:49;93679.75;;;4.62;100.00
20620;BME280;10469;42.720;23.252;2023-03-15T04:11:14;93689.13;;;4.76;100.00
20620;BME280;10469;42.720;23.252;2023-03-15T04:13:42;93682.66;;;4.72;100.00
20620;BME280;10469;42.720;23.252;2023-03-15T04:16:09;93684.28;;;4.85;100.00
20620;BME280;10469;42.720;23.252;2023-03-15T04:18:35;93693.41;;;5.00;100.00
20620;BME280;10469;42.720;23.252;2023-03-15T04:21:00;93689.28;;;4.93;100.00
20620;BME280;10469;42.720;23.252;2023-03-15T04:23:26;93699.41;;;4.96;100.00
20620;BME280;10469;42.720;23.252;2023-03-15T04:25:52;93684.50;;;4.83;100.00
20620;BME280;10469;42.720;23.252;2023-03-15T04:28:19;93691.22;;;4.62;100.00
20620;BME280;10469;42.720;23.252;2023-03-15T04:30:47;93687.53;;;4.75;100.00
20620;BME280;10469;42.720;23.252;2023-03-15T04:33:13;93671.59;;;4.75;100.00
20620;BME280;10469;42.720;23.252;2023-03-15T04:35:39;93694.59;;;4.93;100.00
20620;BME280;10469;42.720;23.252;2023-03-15T04:38:07;93683.81;;;4.76;100.00
20620;BME280;10469;42.720;23.252;2023-03-15T04:40:33;93680.25;;;4.82;100.00
20620;BME280;10469;42.720;23.252;2023-03-15T04:43:03;93678.19;;;4.84;100.00
20620;BME280;10469;42.720;23.252;2023-03-15T04:45:30;93677.56;;;4.70;100.00
20620;BME280;10469;42.720;23.252;2023-03-15T04:47:56;93665.13;;;4.71;100.00
20620;BME280;10469;42.720;23.252;2023-03-15T04:50:22;93677.13;;;4.85;100.00
20620;BME280;10469;42.720;23.252;2023-03-15T04:52:48;93668.69;;;5.00;100.00
20620;BME280;10469;42.720;23.252;2023-03-15T04:55:14;93673.44;;;5.10;100.00
20620;BME280;10469;42.720;23.252;2023-03-15T04:57:40;93674.13;;;4.93;100.00
20620;BME280;10469;42.720;23.252;2023-03-15T05:00:09;93664.88;;;5.08;100.00
20620;BME280;10469;42.720;23.252;2023-03-15T05:02:36;93664.44;;;4.99;100.00
20620;BME280;10469;42.720;23.252;2023-03-15T05:05:10;93675.88;;;5.11;100.00
20620;BME280;10469;42.720;23.252;2023-03-15T05:07:37;93674.50;;;4.97;100.00
20620;BME280;10469;42.720;23.252;2023-03-15T05:10:04;93673.88;;;5.30;100.00
20620;BME280;10469;42.720;23.252;2023-03-15T05:12:30;93671.47;;;6.38;100.00
20620;BME280;10469;42.720;23.252;2023-03-15T05:14:56;93662.13;;;6.86;99.79
20620;BME280;10469;42.720;23.252;2023-03-15T05:17:22;93668.66;;;7.50;95.21
20620;BME280;10469;42.720;23.252;2023-03-15T05:19:48;93674.88;;;7.56;92.58
20620;BME280;10469;42.720;23.252;2023-03-15T05:22:14;93669.31;;;7.41;90.86
20620;BME280;10469;42.720;23.252;2023-03-15T05:24:40;93665.69;;;7.08;90.82
20620;BME280;10469;42.720;23.252;2023-03-15T05:27:05;93670.00;;;6.47;96.73
20620;BME280;10469;42.720;23.252;2023-03-15T05:29:31;93672.84;;;6.40;96.22
20620;BME280;10469;42.720;23.252;2023-03-15T05:31:57;93664.38;;;6.26;96.39
20620;BME280;10469;42.720;23.252;2023-03-15T05:34:22;93650.94;;;6.21;96.87
20620;BME280;10469;42.720;23.252;2023-03-15T05:36:51;93664.66;;;6.30;99.00
20620;BME280;10469;42.720;23.252;2023-03-15T05:39:18;93667.94;;;6.49;98.08
20620;BME280;10469;42.720;23.252;2023-03-15T05:41:43;93650.63;;;6.18;99.32
20620;BME280;10469;42.720;23.252;2023-03-15T05:44:09;93660.56;;;6.22;100.00
20620;BME280;10469;42.720;23.252;2023-03-15T05:46:35;93660.56;;;5.82;100.00
20620;BME280;10469;42.720;23.252;2023-03-15T05:49:00;93660.31;;;5.95;100.00
20620;BME280;10469;42.720;23.252;2023-03-15T05:51:26;93658.53;;;6.29;100.00
20620;BME280;10469;42.720;23.252;2023-03-15T05:53:51;93649.84;;;6.34;99.15
20620;BME280;10469;42.720;23.252;2023-03-15T05:56:17;93659.97;;;6.66;96.60
20620;BME280;10469;42.720;23.252;2023-03-15T05:58:42;93636.63;;;6.56;94.88
20620;BME280;10469;42.720;23.252;2023-03-15T06:01:08;93639.44;;;6.33;92.49
20620;BME280;10469;42.720;23.252;2023-03-15T06:03:33;93641.47;;;6.59;91.97
20620;BME280;10469;42.720;23.252;2023-03-15T06:05:59;93632.13;;;7.12;89.18
20620;BME280;10469;42.720;23.252;2023-03-15T06:08:25;93645.94;;;7.92;84.94
20620;BME280;10469;42.720;23.252;2023-03-15T06:10:50;93645.72;;;11.54;71.84
20620;BME280;10469;42.720;23.252;2023-03-15T06:13:16;93613.06;;;13.78;62.87
20620;BME280;10469;42.720;23.252;2023-03-15T06:15:41;93641.72;;;10.40;59.77
20620;BME280;10469;42.720;23.252;2023-03-15T06:18:07;93657.91;;;9.35;62.27
20620;BME280;10469;42.720;23.252;2023-03-15T06:20:33;93646.09;;;9.88;60.30
20620;BME280;10469;42.720;23.252;2023-03-15T06:22:59;93672.03;;;9.72;59.88
20620;BME280;10469;42.720;23.252;2023-03-15T06:25:24;93672.69;;;8.46;62.09
20620;BME280;10469;42.720;23.252;2023-03-15T06:27:50;93647.50;;;8.64;63.18
20620;BME280;10469;42.720;23.252;2023-03-15T06:30:15;93653.44;;;9.50;60.96
20620;BME280;10469;42.720;23.252;2023-03-15T06:32:41;93664.06;;;8.98;61.31
20620;BME280;10469;42.720;23.252;2023-03-15T06:35:07;93662.00;;;8.73;62.38
20620;BME280;10469;42.720;23.252;2023-03-15T06:37:33;93641.81;;;8.06;64.47
20620;BME280;10469;42.720;23.252;2023-03-15T06:40:01;93651.28;;;7.92;66.68
20620;BME280;10469;42.720;23.252;2023-03-15T06:42:30;93654.19;;;8.12;68.25
20620;BME280;10469;42.720;23.252;2023-03-15T06:44:55;93646.66;;;9.33;66.87
20620;BME280;10469;42.720;23.252;2023-03-15T06:47:21;93642.28;;;11.34;59.58
20620;BME280;10469;42.720;23.252;2023-03-15T06:49:46;93626.97;;;10.27;58.72
20620;BME280;10469;42.720;23.252;2023-03-15T06:52:15;93651.16;;;11.29;58.85
20620;BME280;10469;42.720;23.252;2023-03-15T06:54:40;93644.44;;;11.16;57.73
20620;BME280;10469;42.720;23.252;2023-03-15T06:57:06;93638.97;;;11.88;56.46
20620;BME280;10469;42.720;23.252;2023-03-15T06:59:31;93653.22;;;12.38;54.87
20620;BME280;10469;42.720;23.252;2023-03-15T07:01:57;93636.78;;;14.00;50.20
20620;BME280;10469;42.720;23.252;2023-03-15T07:04:22;93637.25;;;14.50;46.38
20620;BME280;10469;42.720;23.252;2023-03-15T07:06:48;93630.88;;;15.16;46.04
20620;BME280;10469;42.720;23.252;2023-03-15T07:09:13;93622.34;;;14.34;45.03
20620;BME280;10469;42.720;23.252;2023-03-15T07:11:39;93622.28;;;14.95;44.10
20620;BME280;10469;42.720;23.252;2023-03-15T07:14:04;93613.34;;;14.62;43.43
20620;BME280;10469;42.720;23.252;2023-03-15T07:16:31;93633.28;;;13.22;45.44
20620;BME280;10469;42.720;23.252;2023-03-15T07:18:56;93627.00;;;12.98;46.05
20620;BME280;10469;42.720;23.252;2023-03-15T07:21:24;93636.66;;;12.99;45.26
20620;BME280;10469;42.720;23.252;2023-03-15T07:23:50;93642.09;;;12.00;47.13
20620;BME280;10469;42.720;23.252;2023-03-15T07:26:16;93632.06;;;11.46;48.86
20620;BME280;10469;42.720;23.252;2023-03-15T07:28:41;93634.50;;;10.35;51.18
20620;BME280;10469;42.720;23.252;2023-03-15T07:31:09;93647.59;;;10.26;52.57
20620;BME280;10469;42.720;23.252;2023-03-15T07:33:35;93642.72;;;10.18;53.39
20620;BME280;10469;42.720;23.252;2023-03-15T07:36:03;93641.75;;;10.55;53.37
20620;BME280;10469;42.720;23.252;2023-03-15T07:38:28;93633.19;;;10.84;53.05
20620;BME280;10469;42.720;23.252;2023-03-15T07:40:54;93618.50;;;13.97;47.98
20620;BME280;10469;42.720;23.252;2023-03-15T07:43:20;93619.13;;;15.40;43.92
20620;BME280;10469;42.720;23.252;2023-03-15T07:45:46;93628.75;;;14.38;44.27
20620;BME280;10469;42.720;23.252;2023-03-15T07:48:11;93613.88;;;16.17;42.45
20620;BME280;10469;42.720;23.252;2023-03-15T07:50:37;93616.66;;;14.35;43.52
20620;BME280;10469;42.720;23.252;2023-03-15T07:53:03;93602.34;;;15.56;43.79
20620;BME280;10469;42.720;23.252;2023-03-15T07:55:33;93610.78;;;15.22;42.50
20620;BME280;10469;42.720;23.252;2023-03-15T07:57:59;93595.97;;;14.87;44.48
20620;BME280;10469;42.720;23.252;2023-03-15T08:00:25;93585.19;;;14.68;43.77
20620;BME280;10469;42.720;23.252;2023-03-15T08:02:51;93599.47;;;14.50;44.47
20620;BME280;10469;42.720;23.252;2023-03-15T08:05:17;93607.81;;;15.38;42.51
20620;BME280;10469;42.720;23.252;2023-03-15T08:07:47;93600.78;;;13.67;44.20
20620;BME280;10469;42.720;23.252;2023-03-15T08:10:13;93607.50;;;13.69;45.04
20620;BME280;10469;42.720;23.252;2023-03-15T08:12:40;93595.16;;;14.30;43.17
20620;BME280;10469;42.720;23.252;2023-03-15T08:15:09;93610.03;;;13.61;45.41
20620;BME280;10469;42.720;23.252;2023-03-15T08:17:36;93586.94;;;14.21;43.96
20620;BME280;10469;42.720;23.252;2023-03-15T08:20:01;93583.13;;;13.79;44.64
20620;BME280;10469;42.720;23.252;2023-03-15T08:22:27;93598.09;;;12.79;46.47
20620;BME280;10469;42.720;23.252;2023-03-15T08:24:52;93585.50;;;13.62;46.22
20620;BME280;10469;42.720;23.252;2023-03-15T08:27:18;93584.47;;;15.88;44.03
20620;BME280;10469;42.720;23.252;2023-03-15T08:29:43;93589.44;;;17.40;39.92
20620;BME280;10469;42.720;23.252;2023-03-15T08:32:09;93583.59;;;18.26;37.40
20620;BME280;10469;42.720;23.252;2023-03-15T08:34:35;93570.16;;;14.24;42.17
20620;BME280;10469;42.720;23.252;2023-03-15T08:37:00;93570.81;;;14.16;43.96
20620;BME280;10469;42.720;23.252;2023-03-15T08:39:26;93572.41;;;15.53;42.10
20620;BME280;10469;42.720;23.252;2023-03-15T08:41:51;93574.66;;;15.18;42.90
20620;BME280;10469;42.720;23.252;2023-03-15T08:44:17;93576.56;;;13.43;44.18
20620;BME280;10469;42.720;23.252;2023-03-15T08:46:42;93569.13;;;15.84;42.44
20620;BME280;10469;42.720;23.252;2023-03-15T08:49:08;93573.00;;;14.71;43.02
20620;BME280;10469;42.720;23.252;2023-03-15T08:51:33;93558.13;;;15.06;42.62
20620;BME280;10469;42.720;23.252;2023-03-15T08:54:00;93569.22;;;16.06;42.61
20620;BME280;10469;42.720;23.252;2023-03-15T08:56:30;93582.38;;;14.60;44.24
20620;BME280;10469;42.720;23.252;2023-03-15T08:58:56;93571.00;;;14.01;44.54
20620;BME280;10469;42.720;23.252;2023-03-15T09:01:22;93589.16;;;13.18;45.48
20620;BME280;10469;42.720;23.252;2023-03-15T09:03:47;93573.50;;;13.20;47.15
20620;BME280;10469;42.720;23.252;2023-03-15T09:06:14;93572.84;;;12.75;48.45
20620;BME280;10469;42.720;23.252;2023-03-15T09:08:40;93560.84;;;13.74;48.05
20620;BME280;10469;42.720;23.252;2023-03-15T09:11:06;93566.91;;;14.98;45.94
20620;BME280;10469;42.720;23.252;2023-03-15T09:13:31;93570.69;;;13.84;46.88
20620;BME280;10469;42.720;23.252;2023-03-15T09:15:57;93562.66;;;14.40;46.24
20620;BME280;10469;42.720;23.252;2023-03-15T09:18:23;93569.75;;;13.21;48.41
20620;BME280;10469;42.720;23.252;2023-03-15T09:20:49;93561.66;;;13.26;49.68
20620;BME280;10469;42.720;23.252;2023-03-15T09:23:14;93557.22;;;13.06;50.35
20620;BME280;10469;42.720;23.252;2023-03-15T09:25:40;93579.66;;;12.97;49.94
20620;BME280;10469;42.720;23.252;2023-03-15T09:28:08;93570.06;;;12.86;50.46
20620;BME280;10469;42.720;23.252;2023-03-15T09:30:36;93565.16;;;12.59;51.23
20620;BME280;10469;42.720;23.252;2023-03-15T09:33:02;93562.00;;;12.12;52.79
20620;BME280;10469;42.720;23.252;2023-03-15T09:35:27;93550.19;;;12.47;52.41
20620;BME280;10469;42.720;23.252;2023-03-15T09:37:53;93558.91;;;13.32;50.92
20620;BME280;10469;42.720;23.252;2023-03-15T09:40:28;93547.56;;;14.20;49.21
20620;BME280;10469;42.720;23.252;2023-03-15T09:48:33;93539.19;;;15.25;45.96
20620;BME280;10469;42.720;23.252;2023-03-15T09:51:10;93547.47;;;14.06;47.66
20620;BME280;10469;42.720;23.252;2023-03-15T09:53:48;93541.72;;;13.27;49.27
20620;BME280;10469;42.720;23.252;2023-03-15T09:56:26;93534.69;;;12.39;51.39
20620;BME280;10469;42.720;23.252;2023-03-15T09:58:56;93516.06;;;12.77;51.24
20620;BME280;10469;42.720;23.252;2023-03-15T10:01:28;93537.75;;;12.17;52.95
20620;BME280;10469;42.720;23.252;2023-03-15T10:03:55;93553.44;;;12.05;53.65
20620;BME280;10469;42.720;23.252;2023-03-15T10:06:23;93546.81;;;11.87;54.96
20620;BME280;10469;42.720;23.252;2023-03-15T10:09:18;93556.59;;;11.52;55.52
20620;BME280;10469;42.720;23.252;2023-03-15T10:14:31;93562.59;;;11.99;55.58
20620;BME280;10469;42.720;23.252;2023-03-15T10:17:13;93559.88;;;12.09;55.05
20620;BME280;10469;42.720;23.252;2023-03-15T10:22:26;93550.47;;;14.05;nan
20620;BME280;10469;42.720;23.252;2023-03-15T10:25:29;93544.13;;;15.78;47.13
20620;BME280;10469;42.720;23.252;2023-03-15T10:30:36;93546.81;;;15.50;45.42
20620;BME280;10469;42.720;23.252;2023-03-15T10:36:17;93524.81;;;13.89;47.42
20620;BME280;10469;42.720;23.252;2023-03-15T10:38:44;93528.00;;;12.95;49.61
20620;BME280;10469;42.720;23.252;2023-03-15T10:41:27;93549.22;;;12.33;51.77
20620;BME280;10469;42.720;23.252;2023-03-15T10:44:02;93557.16;;;12.14;52.68
20620;BME280;10469;42.720;23.252;2023-03-15T10:46:28;93552.72;;;11.89;53.53
20620;BME280;10469;42.720;23.252;2023-03-15T10:51:35;93542.88;;;12.19;53.45
20620;BME280;10469;42.720;23.252;2023-03-15T10:54:19;93537.34;;;12.05;53.99
20620;BME280;10469;42.720;23.252;2023-03-15T10:59:20;93550.09;;;12.63;52.82
20620;BME280;10469;42.720;23.252;2023-03-15T11:02:06;93556.34;;;12.09;53.57
20620;BME280;10469;42.720;23.252;2023-03-15T11:04:32;93538.47;;;11.94;55.50
20620;BME280;10469;42.720;23.252;2023-03-15T11:07:02;93547.31;;;11.94;56.35
20620;BME280;10469;42.720;23.252;2023-03-15T11:09:43;93544.84;;;12.03;55.98
20620;BME280;10469;42.720;23.252;2023-03-15T11:12:15;93528.09;;;11.67;58.15
20620;BME280;10469;42.720;23.252;2023-03-15T11:14:48;93530.19;;;11.80;59.36
20620;BME280;10469;42.720;23.252;2023-03-15T11:17:20;93533.69;;;12.25;58.10
20620;BME280;10469;42.720;23.252;2023-03-15T11:19:57;93538.38;;;12.09;58.42
20620;BME280;10469;42.720;23.252;2023-03-15T11:22:24;93510.44;;;12.10;60.62
20620;BME280;10469;42.720;23.252;2023-03-15T11:24:51;93525.66;;;12.20;62.07
20620;BME280;10469;42.720;23.252;2023-03-15T11:27:21;93516.94;;;12.38;62.33
20620;BME280;10469;42.720;23.252;2023-03-15T11:29:54;93525.81;;;11.94;62.61
20620;BME280;10469;42.720;23.252;2023-03-15T11:32:22;93515.84;;;11.45;65.66
20620;BME280;10469;42.720;23.252;2023-03-15T11:35:03;93536.97;;;11.67;68.90
20620;BME280;10469;42.720;23.252;2023-03-15T11:37:49;93543.50;;;11.46;73.45
20620;BME280;10469;42.720;23.252;2023-03-15T11:40:21;93538.16;;;11.36;77.01
20620;BME280;10469;42.720;23.252;2023-03-15T11:42:54;93527.50;;;11.15;81.68
20620;BME280;10469;42.720;23.252;2023-03-15T11:48:33;93535.88;;;10.88;100.00
20620;BME280;10469;42.720;23.252;2023-03-15T11:51:05;93535.09;;;10.37;100.00
20620;BME280;10469;42.720;23.252;2023-03-15T11:53:36;93513.66;;;10.37;100.00
20620;BME280;10469;42.720;23.252;2023-03-15T11:56:26;93528.38;;;10.80;100.00
20620;BME280;10469;42.720;23.252;2023-03-15T11:59:04;93532.94;;;10.79;100.00
20620;BME280;10469;42.720;23.252;2023-03-15T12:01:33;93528.34;;;11.05;100.00
20620;BME280;10469;42.720;23.252;2023-03-15T12:06:54;93525.34;;;11.12;100.00
20620;BME280;10469;42.720;23.252;2023-03-15T12:11:59;93517.59;;;11.00;100.00
20620;BME280;10469;42.720;23.252;2023-03-15T12:14:30;93522.59;;;11.38;100.00
20620;BME280;10469;42.720;23.252;2023-03-15T12:19:59;93492.34;;;11.12;100.00
20620;BME280;10469;42.720;23.252;2023-03-15T12:22:30;93506.28;;;11.14;100.00
20620;BME280;10469;42.720;23.252;2023-03-15T12:25:07;93491.56;;;11.11;100.00
20620;BME280;10469;42.720;23.252;2023-03-15T12:27:36;93495.34;;;10.95;98.49
20620;BME280;10469;42.720;23.252;2023-03-15T12:30:03;93492.97;;;10.78;100.00
20620;BME280;10469;42.720;23.252;2023-03-15T12:32:42;93498.84;;;10.95;99.22
20620;BME280;10469;42.720;23.252;2023-03-15T12:35:15;93488.94;;;10.86;100.00
20620;BME280;10469;42.720;23.252;2023-03-15T12:37:48;93498.00;;;11.10;100.00
20620;BME280;10469;42.720;23.252;2023-03-15T12:42:58;93491.28;;;11.08;94.29
20620;BME280;10469;42.720;23.252;2023-03-15T12:56:29;93479.72;;;11.17;87.32
20620;BME280;10469;42.720;23.252;2023-03-15T13:02:23;93480.34;;;10.94;86.94
20620;BME280;10469;42.720;23.252;2023-03-15T13:04:55;93473.06;;;11.10;86.10
20620;BME280;10469;42.720;23.252;2023-03-15T13:08:02;93487.50;;;11.14;85.29
20620;BME280;10469;42.720;23.252;2023-03-15T13:13:17;93483.53;;;11.01;85.64
20620;BME280;10469;42.720;23.252;2023-03-15T13:16:23;93480.34;;;10.94;86.48
20620;BME280;10469;42.720;23.252;2023-03-15T13:18:57;93482.41;;;11.17;83.79
20620;BME280;10469;42.720;23.252;2023-03-15T13:23:57;93469.63;;;11.59;81.77
20620;BME280;10469;42.720;23.252;2023-03-15T13:31:31;93489.59;;;12.31;78.65
20620;BME280;10469;42.720;23.252;2023-03-15T13:34:10;93479.25;;;12.43;76.03
20620;BME280;10469;42.720;23.252;2023-03-15T13:39:33;93483.97;;;11.28;81.28
20620;BME280;10469;42.720;23.252;2023-03-15T13:42:04;93478.63;;;11.23;81.74
20620;BME280;10469;42.720;23.252;2023-03-15T13:44:31;93500.88;;;11.29;83.21
20620;BME280;10469;42.720;23.252;2023-03-15T13:46:57;93480.03;;;11.11;85.48
20620;BME280;10469;42.720;23.252;2023-03-15T13:49:23;93480.28;;;11.14;85.04
20620;BME280;10469;42.720;23.252;2023-03-15T13:51:51;93478.06;;;11.32;84.79
20620;BME280;10469;42.720;23.252;2023-03-15T13:54:30;93498.06;;;10.90;86.36
20620;BME280;10469;42.720;23.252;2023-03-15T13:57:03;93482.59;;;10.25;95.49
20620;BME280;10469;42.720;23.252;2023-03-15T14:02:03;93483.66;;;10.24;96.88
20620;BME280;10469;42.720;23.252;2023-03-15T14:04:34;93496.50;;;10.53;98.94
20620;BME280;10469;42.720;23.252;2023-03-15T14:07:23;93497.28;;;10.02;100.00
20620;BME280;10469;42.720;23.252;2023-03-15T14:12:42;93497.97;;;9.52;100.00
20620;BME280;10469;42.720;23.252;2023-03-15T14:15:21;93487.56;;;9.55;100.00